Time;durP1;ratioP1;P1;durP2;ratioP2;P2;SDS_P1;SDS_P2;PMS_P1;PMS_P2;Temp;Humidity;BMP_temperature;BMP_pressure;BME280_temperature;BME280_humidity;BME280_pressure;Samples;Min_cycle;Max_cycle;Signal;HPM_P1;HPM_P2
2021/01/15 00:01:04;;;;;;;31.88;15.65;;;0.30;99.90;;;;;;4971962;28;20117;-80
2021/01/15 00:03:36;;;;;;;30.48;15.60;;;0.30;99.90;;;;;;4971957;28;20030;-80
2021/01/15 00:06:06;;;;;;;28.08;14.52;;;0.30;99.90;;;;;;4968206;28;20039;-80
2021/01/15 00:08:40;;;;;;;22.95;13.10;;;0.20;99.90;;;;;;4952625;29;20090;-80
2021/01/15 00:11:19;;;;;;;28.17;14.75;;;0.20;99.90;;;;;;4963090;28;20060;-80
2021/01/15 00:13:45;;;;;;;27.35;15.50;;;0.20;99.90;;;;;;4971854;28;20030;-80
2021/01/15 00:16:25;;;;;;;33.15;14.90;;;0.20;99.90;;;;;;4972887;28;20085;-80
2021/01/15 00:18:53;;;;;;;27.42;15.02;;;0.20;99.90;;;;;;4971856;28;20027;-80
2021/01/15 00:21:51;;;;;;;33.55;15.13;;;0.20;99.90;;;;;;4972989;28;20030;-80
2021/01/15 00:24:20;;;;;;;28.17;14.57;;;0.20;99.90;;;;;;4968129;28;20023;-80
2021/01/15 00:26:47;;;;;;;30.73;16.08;;;0.20;99.90;;;;;;4969604;28;20043;-80
2021/01/15 00:29:14;;;;;;;28.15;14.50;;;0.20;99.90;;;;;;4971668;28;20053;-80
2021/01/15 00:31:41;;;;;;;28.60;14.48;;;0.20;99.90;;;;;;4972821;28;20452;-80
2021/01/15 00:34:11;;;;;;;29.15;15.65;;;0.20;99.90;;;;;;4972504;28;20376;-80
2021/01/15 00:36:40;;;;;;;28.85;14.60;;;0.20;99.90;;;;;;4971687;28;20549;-79
2021/01/15 00:39:08;;;;;;;24.67;14.35;;;0.10;99.90;;;;;;4971490;28;20109;-80
2021/01/15 00:41:35;;;;;;;30.05;14.25;;;0.10;99.90;;;;;;4968149;28;20065;-80
2021/01/15 00:44:02;;;;;;;38.58;14.82;;;0.10;99.90;;;;;;4963174;28;20026;-80
2021/01/15 00:46:31;;;;;;;28.60;16.15;;;0.10;99.90;;;;;;4971562;28;20019;-80
2021/01/15 00:49:04;;;;;;;26.05;13.98;;;0.10;99.90;;;;;;4971515;28;20042;-80
2021/01/15 00:51:30;;;;;;;31.27;16.10;;;0.10;99.90;;;;;;4971195;28;20031;-79
2021/01/15 00:53:56;;;;;;;29.05;15.32;;;0.00;99.90;;;;;;4971134;28;20030;-79
2021/01/15 00:56:22;;;;;;;29.17;14.60;;;0.00;99.90;;;;;;4972383;28;20579;-80
2021/01/15 00:58:50;;;;;;;25.50;14.20;;;0.00;99.90;;;;;;4972642;28;20034;-80
2021/01/15 01:01:16;;;;;;;26.17;14.20;;;0.00;99.90;;;;;;4972400;28;20035;-80
2021/01/15 01:03:43;;;;;;;28.00;13.85;;;0.00;99.90;;;;;;4972530;28;20030;-80
2021/01/15 01:06:13;;;;;;;24.38;13.85;;;0.00;99.90;;;;;;4971398;28;20031;-80
2021/01/15 01:08:39;;;;;;;23.58;12.35;;;0.00;99.90;;;;;;4972427;28;20035;-80
2021/01/15 01:11:19;;;;;;;25.92;13.77;;;0.00;99.90;;;;;;4972689;28;20065;-81
2021/01/15 01:13:49;;;;;;;24.40;13.75;;;-0.10;99.90;;;;;;4976148;28;20452;-80
2021/01/15 01:16:15;;;;;;;26.27;14.05;;;-0.10;99.90;;;;;;4975006;28;20026;-80
2021/01/15 01:18:42;;;;;;;28.27;14.52;;;-0.10;99.90;;;;;;4975844;28;20546;-80
2021/01/15 01:21:08;;;;;;;27.20;14.38;;;-0.10;99.90;;;;;;4990882;28;20046;-80
2021/01/15 01:23:34;;;;;;;26.10;13.85;;;-0.10;99.90;;;;;;4976208;28;20054;-80
2021/01/15 01:25:59;;;;;;;28.75;14.93;;;-0.10;99.90;;;;;;4974359;28;20058;-80
2021/01/15 01:28:25;;;;;;;27.90;15.02;;;-0.10;99.90;;;;;;4974741;28;20027;-79
2021/01/15 01:30:51;;;;;;;28.65;14.98;;;-0.10;99.90;;;;;;4975869;28;20038;-80
2021/01/15 01:33:16;;;;;;;30.23;16.10;;;-0.10;99.90;;;;;;4971078;28;20118;-80
2021/01/15 01:35:42;;;;;;;27.73;14.43;;;-0.10;99.90;;;;;;4956307;29;20027;-80
2021/01/15 01:38:07;;;;;;;30.88;14.52;;;-0.10;99.90;;;;;;4971251;28;20027;-80
2021/01/15 01:40:33;;;;;;;28.25;14.65;;;-0.10;99.90;;;;;;4962815;28;20196;-80
2021/01/15 01:42:59;;;;;;;32.58;15.73;;;-0.10;99.90;;;;;;4975293;28;20046;-79
2021/01/15 01:45:24;;;;;;;26.30;14.45;;;-0.10;99.90;;;;;;4974240;28;20027;-80
2021/01/15 01:47:51;;;;;;;27.35;14.40;;;-0.10;99.90;;;;;;4975333;28;20066;-80
2021/01/15 01:50:17;;;;;;;27.63;15.68;;;-0.10;99.90;;;;;;4974134;28;20027;-80
2021/01/15 01:52:42;;;;;;;29.77;14.15;;;-0.20;99.90;;;;;;4974195;28;20033;-80
2021/01/15 01:55:09;;;;;;;29.42;15.35;;;-0.20;99.90;;;;;;4975082;28;20470;-80
2021/01/15 01:57:34;;;;;;;25.33;14.13;;;-0.10;99.90;;;;;;4975218;28;20059;-80
2021/01/15 02:00:00;;;;;;;28.15;15.10;;;-0.10;99.90;;;;;;4975244;28;20077;-80
2021/01/15 02:02:26;;;;;;;22.98;13.25;;;-0.20;99.90;;;;;;4975243;28;20365;-80
2021/01/15 02:04:52;;;;;;;30.98;14.38;;;-0.10;99.90;;;;;;4973858;28;20027;-80
2021/01/15 02:07:19;;;;;;;32.38;16.02;;;-0.20;99.90;;;;;;4974937;28;20111;-80
2021/01/15 02:09:55;;;;;;;35.90;15.75;;;-0.20;99.90;;;;;;4974588;28;20215;-80
2021/01/15 02:12:39;;;;;;;27.50;14.75;;;-0.20;99.90;;;;;;4973841;28;20104;-80
2021/01/15 02:15:12;;;;;;;27.70;15.25;;;-0.20;99.90;;;;;;4974839;28;20030;-81
2021/01/15 02:17:50;;;;;;;21.65;14.07;;;-0.10;99.90;;;;;;4970469;28;20035;-80
2021/01/15 02:20:28;;;;;;;32.65;14.98;;;-0.10;99.90;;;;;;4955744;28;20036;-80
2021/01/15 02:23:10;;;;;;;31.52;15.10;;;-0.20;99.90;;;;;;4955298;28;20027;-80
2021/01/15 02:26:03;;;;;;;25.40;14.82;;;-0.20;99.90;;;;;;4962021;28;20078;-80
2021/01/15 02:29:17;;;;;;;25.50;14.07;;;-0.20;99.90;;;;;;4974899;28;20027;-80
2021/01/15 02:31:45;;;;;;;23.65;12.68;;;-0.20;99.90;;;;;;4936487;29;20042;-80
2021/01/15 02:34:34;;;;;;;27.85;14.18;;;-0.20;99.90;;;;;;4936996;29;20114;-80
2021/01/15 02:37:16;;;;;;;24.55;12.90;;;-0.20;99.90;;;;;;4953845;28;20039;-80
2021/01/15 02:40:01;;;;;;;27.60;14.32;;;-0.20;99.90;;;;;;4954169;29;20510;-80
2021/01/15 02:42:28;;;;;;;29.98;15.55;;;-0.20;99.90;;;;;;4955308;28;20048;-80
2021/01/15 02:44:55;;;;;;;29.70;13.90;;;-0.20;99.90;;;;;;4953825;29;20024;-79
2021/01/15 02:47:28;;;;;;;24.13;13.77;;;-0.20;99.90;;;;;;4968728;28;20415;-80
2021/01/15 02:49:55;;;;;;;27.42;14.20;;;-0.20;99.90;;;;;;4974532;28;20026;-80
2021/01/15 02:52:21;;;;;;;26.40;14.80;;;-0.20;99.90;;;;;;4973140;28;20037;-80
2021/01/15 02:54:47;;;;;;;27.80;14.48;;;-0.20;99.90;;;;;;4973857;28;20027;-80
2021/01/15 02:57:13;;;;;;;24.88;14.30;;;-0.30;99.90;;;;;;4974305;28;20106;-80
2021/01/15 02:59:38;;;;;;;22.55;13.30;;;-0.30;99.90;;;;;;4973102;28;20023;-80
2021/01/15 03:02:30;;;;;;;24.17;12.68;;;-0.30;99.90;;;;;;4972907;28;20093;-80
2021/01/15 03:04:59;;;;;;;23.70;13.52;;;-0.30;99.90;;;;;;4972724;28;20085;-79
2021/01/15 03:07:26;;;;;;;23.73;12.70;;;-0.30;99.90;;;;;;4973854;28;20076;-80
2021/01/15 03:09:59;;;;;;;23.60;12.45;;;-0.20;99.90;;;;;;4972588;28;20403;-80
2021/01/15 03:12:26;;;;;;;25.75;13.30;;;-0.30;99.90;;;;;;4973990;28;20508;-81
2021/01/15 03:14:53;;;;;;;24.58;13.43;;;-0.20;99.90;;;;;;4969382;28;20070;-81
2021/01/15 03:17:24;;;;;;;25.50;12.27;;;-0.20;99.90;;;;;;4953452;29;20109;-81
2021/01/15 03:19:51;;;;;;;27.02;13.32;;;-0.30;99.90;;;;;;4953282;29;20039;-80
2021/01/15 03:22:19;;;;;;;27.95;12.77;;;-0.30;99.90;;;;;;4954442;28;20134;-80
2021/01/15 03:25:05;;;;;;;23.67;12.35;;;-0.30;99.90;;;;;;4953627;28;20038;-80
2021/01/15 03:27:45;;;;;;;22.77;12.43;;;-0.20;99.90;;;;;;4973655;28;20041;-80
2021/01/15 03:30:13;;;;;;;24.77;13.15;;;-0.20;99.90;;;;;;4973107;28;20113;-80
2021/01/15 03:32:39;;;;;;;21.88;12.23;;;-0.30;99.90;;;;;;4971060;28;20031;-80
2021/01/15 03:35:05;;;;;;;19.80;11.02;;;-0.30;99.90;;;;;;4972500;28;20037;-80
2021/01/15 03:37:35;;;;;;;24.65;11.48;;;-0.20;99.90;;;;;;4972355;28;20062;-80
2021/01/15 03:40:02;;;;;;;18.55;9.55;;;-0.20;99.90;;;;;;4973300;28;20400;-80
2021/01/15 03:42:28;;;;;;;19.58;9.93;;;-0.20;99.90;;;;;;4973454;28;20065;-80
2021/01/15 03:44:53;;;;;;;19.33;8.57;;;-0.10;99.90;;;;;;4973244;28;20051;-80
2021/01/15 03:47:19;;;;;;;16.83;8.80;;;-0.20;99.90;;;;;;4972222;28;20030;-80
2021/01/15 03:49:45;;;;;;;17.10;8.75;;;-0.20;99.90;;;;;;4972064;28;20031;-80
2021/01/15 03:52:11;;;;;;;18.73;9.50;;;-0.20;99.90;;;;;;4968644;28;20101;-81
2021/01/15 03:54:37;;;;;;;18.15;9.68;;;-0.20;99.90;;;;;;4953916;29;20023;-80
2021/01/15 03:57:03;;;;;;;18.10;10.15;;;-0.20;99.90;;;;;;4972160;28;20026;-80
2021/01/15 03:59:28;;;;;;;19.67;10.88;;;-0.20;99.90;;;;;;4972075;28;20062;-80
2021/01/15 04:01:54;;;;;;;18.63;10.60;;;-0.20;99.90;;;;;;4971676;28;20030;-80
2021/01/15 04:04:19;;;;;;;20.02;10.63;;;-0.30;99.90;;;;;;4973417;28;20391;-80
2021/01/15 04:06:45;;;;;;;19.15;11.18;;;-0.30;99.90;;;;;;4971956;28;20038;-79
2021/01/15 04:09:10;;;;;;;19.65;11.43;;;-0.30;99.90;;;;;;4972850;28;20046;-80
2021/01/15 04:11:36;;;;;;;20.08;11.93;;;-0.30;99.90;;;;;;4971578;28;20027;-80
2021/01/15 04:14:01;;;;;;;24.25;11.50;;;-0.20;99.90;;;;;;4972880;28;20022;-80
2021/01/15 04:16:27;;;;;;;24.40;12.20;;;-0.30;99.90;;;;;;4971883;28;20054;-80
2021/01/15 04:18:52;;;;;;;20.55;11.32;;;-0.30;99.90;;;;;;4987711;28;20031;-81
2021/01/15 04:21:18;;;;;;;25.23;12.35;;;-0.30;99.90;;;;;;4972969;28;20034;-80
2021/01/15 04:23:44;;;;;;;19.38;11.15;;;-0.30;99.90;;;;;;4972928;28;20535;-80
2021/01/15 04:26:17;;;;;;;21.80;11.73;;;-0.30;99.90;;;;;;4968334;28;20034;-80
2021/01/15 04:28:42;;;;;;;27.80;12.73;;;-0.30;99.90;;;;;;4952523;29;20027;-81
2021/01/15 04:31:08;;;;;;;24.83;12.68;;;-0.40;99.90;;;;;;4952335;28;20037;-80
2021/01/15 04:33:34;;;;;;;23.67;13.48;;;-0.40;99.90;;;;;;4953636;29;20046;-80
2021/01/15 04:36:00;;;;;;;26.70;13.60;;;-0.40;99.90;;;;;;4958946;28;20062;-80
2021/01/15 04:38:25;;;;;;;30.45;15.32;;;-0.30;99.90;;;;;;4971641;28;20566;-80
2021/01/15 04:40:57;;;;;;;28.00;14.40;;;-0.40;99.90;;;;;;4971361;28;20039;-80
2021/01/15 04:43:24;;;;;;;30.73;16.23;;;-0.40;99.90;;;;;;4971719;28;20031;-80
2021/01/15 04:45:53;;;;;;;34.50;16.75;;;-0.40;99.90;;;;;;4974565;28;20046;-80
2021/01/15 04:48:21;;;;;;;37.20;17.92;;;-0.40;99.90;;;;;;4976633;28;20058;-80
2021/01/15 04:50:48;;;;;;;38.65;18.90;;;-0.40;99.90;;;;;;4976498;28;20463;-80
2021/01/15 04:53:19;;;;;;;32.55;18.58;;;-0.50;99.90;;;;;;4975344;28;20022;-80
2021/01/15 04:55:45;;;;;;;40.33;20.60;;;-0.50;99.90;;;;;;4974978;28;20027;-80
2021/01/15 04:58:14;;;;;;;40.13;20.15;;;-0.50;99.90;;;;;;4976554;28;20058;-80
2021/01/15 05:00:41;;;;;;;37.38;19.63;;;-0.50;99.90;;;;;;4976536;28;20031;-80
2021/01/15 05:03:09;;;;;;;40.65;19.45;;;-0.50;99.90;;;;;;4975244;28;20074;-80
2021/01/15 05:05:44;;;;;;;42.65;21.20;;;-0.50;99.90;;;;;;4974797;28;20381;-80
2021/01/15 05:08:10;;;;;;;32.40;17.80;;;-0.50;99.90;;;;;;4976356;28;20073;-80
2021/01/15 05:10:41;;;;;;;39.42;19.10;;;-0.60;99.90;;;;;;4975673;28;20034;-80
2021/01/15 05:13:09;;;;;;;35.55;18.55;;;-0.60;99.90;;;;;;4974990;28;20093;-80
2021/01/15 05:15:37;;;;;;;35.30;19.17;;;-0.70;99.90;;;;;;4975791;28;20030;-81
2021/01/15 05:18:05;;;;;;;35.20;18.73;;;-0.70;99.90;;;;;;4976179;28;20050;-80
2021/01/15 05:20:31;;;;;;;30.48;17.98;;;-0.70;99.90;;;;;;4976011;28;20038;-80
2021/01/15 05:23:01;;;;;;;35.63;18.02;;;-0.70;99.90;;;;;;4976048;28;20031;-80
2021/01/15 05:25:28;;;;;;;42.75;19.90;;;-0.70;99.90;;;;;;4974397;28;20506;-80
2021/01/15 05:27:54;;;;;;;34.33;17.85;;;-0.70;99.90;;;;;;4976063;28;20456;-80
2021/01/15 05:30:23;;;;;;;37.08;18.30;;;-0.70;99.90;;;;;;4975741;28;20113;-80
2021/01/15 05:32:50;;;;;;;31.23;16.15;;;-0.60;99.90;;;;;;4974548;28;20027;-80
2021/01/15 05:35:16;;;;;;;35.00;15.80;;;-0.70;99.90;;;;;;4974111;28;20499;-80
2021/01/15 05:37:53;;;;;;;30.65;16.08;;;-0.60;99.90;;;;;;4990796;28;20050;-80
2021/01/15 05:40:34;;;;;;;28.23;16.48;;;-0.70;99.90;;;;;;4975687;28;20046;-80
2021/01/15 05:43:00;;;;;;;34.80;17.33;;;-0.70;99.90;;;;;;4975759;28;20416;-80
2021/01/15 05:45:26;;;;;;;30.50;15.95;;;-0.70;99.90;;;;;;4975451;28;20023;-80
2021/01/15 05:47:52;;;;;;;28.77;15.95;;;-0.60;99.90;;;;;;4990206;28;20031;-80
2021/01/15 05:50:17;;;;;;;31.70;16.23;;;-0.70;99.90;;;;;;4975572;28;20479;-80
2021/01/15 05:52:57;;;;;;;28.88;15.48;;;-0.70;99.90;;;;;;4975454;28;20019;-79
2021/01/15 05:55:24;;;;;;;34.25;17.17;;;-0.80;99.90;;;;;;4970661;28;20030;-80
2021/01/15 05:57:50;;;;;;;32.22;15.75;;;-0.90;99.90;;;;;;4955482;28;20066;-80
2021/01/15 06:00:24;;;;;;;39.22;18.08;;;-1.10;99.90;;;;;;4956113;29;20035;-80
2021/01/15 06:02:55;;;;;;;34.35;18.77;;;-1.20;99.90;;;;;;4954703;28;20566;-80
2021/01/15 06:05:23;;;;;;;41.05;18.05;;;-1.20;99.90;;;;;;4957248;28;20028;-80
2021/01/15 06:07:56;;;;;;;38.15;18.88;;;-1.30;99.90;;;;;;4973910;28;20038;-80
2021/01/15 06:10:23;;;;;;;33.00;17.58;;;-1.40;99.90;;;;;;4974998;28;20106;-80
2021/01/15 06:12:50;;;;;;;39.63;18.83;;;-1.50;99.90;;;;;;4973780;28;20471;-80
2021/01/15 06:15:16;;;;;;;42.67;19.17;;;-1.50;99.90;;;;;;4973476;28;20031;-79
2021/01/15 06:17:51;;;;;;;41.95;20.23;;;-1.40;99.90;;;;;;4973960;28;20050;-80
2021/01/15 06:20:21;;;;;;;41.03;18.95;;;-1.40;99.90;;;;;;4975124;28;20031;-80
2021/01/15 06:22:54;;;;;;;37.38;18.83;;;-1.50;99.90;;;;;;4973671;28;20117;-80
2021/01/15 06:25:30;;;;;;;37.45;19.65;;;-1.40;99.90;;;;;;4974458;28;20025;-79
2021/01/15 06:28:04;;;;;;;38.15;18.85;;;-1.50;99.90;;;;;;4973762;28;20499;-79
2021/01/15 06:30:37;;;;;;;40.30;19.58;;;-1.50;99.90;;;;;;4974993;28;20050;-79
2021/01/15 06:33:21;;;;;;;37.20;18.50;;;-1.40;99.90;;;;;;4973612;28;20557;-80
2021/01/15 06:35:47;;;;;;;;;;;-1.40;99.90;;;;;;4975176;28;20066;-80
2021/01/15 06:38:15;;;;;;;41.55;18.23;;;-1.40;99.90;;;;;;4973356;28;19929;-80
2021/01/15 06:40:45;;;;;;;34.17;19.02;;;-1.30;99.90;;;;;;4973306;28;20114;-80
2021/01/15 06:43:28;;;;;;;34.92;17.60;;;-1.30;99.90;;;;;;4973780;28;20077;-79
2021/01/15 06:45:59;;;;;;;31.73;18.00;;;-1.30;99.90;;;;;;4969555;28;20043;-80
2021/01/15 06:48:32;;;;;;;31.27;16.20;;;-1.30;99.90;;;;;;4955315;28;20081;-80
2021/01/15 06:50:58;;;;;;;32.47;16.02;;;-1.20;99.90;;;;;;4955061;28;20495;-79
2021/01/15 06:53:24;;;;;;;35.60;17.80;;;-1.30;99.90;;;;;;4959996;28;20105;-80
2021/01/15 06:55:54;;;;;;;34.70;17.38;;;-1.30;99.90;;;;;;4972873;28;20463;-81
2021/01/15 06:58:39;;;;;;;36.13;18.95;;;-1.30;99.90;;;;;;4973065;28;20027;-80
2021/01/15 07:01:11;;;;;;;51.80;20.35;;;-1.30;99.90;;;;;;4974291;28;20390;-80
2021/01/15 07:04:10;;;;;;;31.13;15.93;;;-1.30;99.90;;;;;;4973939;28;20496;-80
2021/01/15 07:06:37;;;;;;;34.72;17.42;;;-1.30;99.90;;;;;;4972921;28;20384;-80
2021/01/15 07:09:08;;;;;;;26.10;15.05;;;-1.40;99.90;;;;;;4968405;28;20039;-81
2021/01/15 07:11:40;;;;;;;30.88;15.82;;;-1.30;99.90;;;;;;4968475;28;20037;-80
2021/01/15 07:14:05;;;;;;;27.63;14.00;;;-1.30;99.90;;;;;;4969260;28;20039;-80
2021/01/15 07:16:39;;;;;;;28.67;13.50;;;-1.30;99.90;;;;;;4954661;29;20019;-80
2021/01/15 07:19:04;;;;;;;;;;;-1.30;99.90;;;;;;4955093;29;20568;-80
2021/01/15 07:21:34;;;;;;;22.45;12.35;;;-1.30;99.90;;;;;;4954552;28;20009;-80
2021/01/15 07:24:09;;;;;;;25.27;13.05;;;-1.30;99.90;;;;;;4970786;28;20024;-80
2021/01/15 07:26:39;;;;;;;25.27;12.43;;;-1.30;99.90;;;;;;4972419;28;20101;-80
2021/01/15 07:29:08;;;;;;;21.90;13.00;;;-1.20;99.90;;;;;;4973793;28;20082;-80
2021/01/15 07:31:37;;;;;;;25.70;12.77;;;-1.20;99.90;;;;;;4972355;28;20054;-80
2021/01/15 07:34:06;;;;;;;25.23;12.57;;;-1.20;99.90;;;;;;4973530;28;20401;-81
2021/01/15 07:36:36;;;;;;;24.42;12.20;;;-1.20;99.90;;;;;;4973426;28;20027;-80
2021/01/15 07:39:12;;;;;;;30.10;11.70;;;-1.20;99.90;;;;;;4972440;28;20073;-79
2021/01/15 07:41:53;;;;;;;22.40;12.07;;;-1.20;99.90;;;;;;4968968;28;20032;-80
2021/01/15 07:44:22;;;;;;;20.20;11.55;;;-1.30;99.90;;;;;;4969501;28;20390;-80
2021/01/15 07:47:00;;;;;;;26.48;11.98;;;-1.30;99.90;;;;;;4973561;28;20093;-81
2021/01/15 07:49:41;;;;;;;23.38;12.13;;;-1.40;99.90;;;;;;4973414;28;20046;-80
2021/01/15 07:52:10;;;;;;;19.30;10.63;;;-1.50;99.90;;;;;;4973454;28;20423;-80
2021/01/15 07:54:51;;;;;;;23.52;12.30;;;-1.60;99.90;;;;;;4973064;28;20027;-80
2021/01/15 07:57:19;;;;;;;22.48;10.35;;;-1.70;99.90;;;;;;4952853;28;20035;-80
2021/01/15 07:59:45;;;;;;;19.00;10.02;;;-1.70;99.90;;;;;;4952816;28;20026;-80
2021/01/15 08:02:15;;;;;;;19.65;9.57;;;-1.80;99.90;;;;;;4965764;28;20410;-80
2021/01/15 08:04:40;;;;;;;20.15;9.18;;;-1.90;99.90;;;;;;4971592;28;20118;-80
2021/01/15 08:07:30;;;;;;;23.20;8.93;;;-1.90;99.90;;;;;;4972730;28;20554;-80
2021/01/15 08:09:55;;;;;;;22.05;9.48;;;-1.90;99.90;;;;;;4971356;28;20039;-81
2021/01/15 08:12:22;;;;;;;18.58;9.48;;;-2.00;99.90;;;;;;4971535;28;20038;-80
2021/01/15 08:14:47;;;;;;;17.63;9.32;;;-1.90;99.90;;;;;;4972844;28;20019;-80
2021/01/15 08:17:14;;;;;;;18.92;10.45;;;-2.00;99.90;;;;;;4972678;28;20109;-80
2021/01/15 08:19:41;;;;;;;28.55;11.40;;;-2.00;99.90;;;;;;4972526;28;20479;-80
2021/01/15 08:22:12;;;;;;;22.13;9.70;;;-2.20;99.90;;;;;;4971637;28;20031;-80
2021/01/15 08:24:48;;;;;;;20.17;10.77;;;-2.20;99.90;;;;;;4972761;28;20019;-80
2021/01/15 08:27:17;;;;;;;22.05;11.00;;;-2.20;99.90;;;;;;4972647;28;20125;-80
2021/01/15 08:29:43;;;;;;;24.30;10.93;;;-2.20;99.90;;;;;;4971468;28;20045;-80
2021/01/15 08:32:09;;;;;;;21.15;10.73;;;-2.20;99.90;;;;;;4971520;28;20050;-80
2021/01/15 08:34:36;;;;;;;19.30;9.68;;;-2.30;99.90;;;;;;4972650;28;20019;-81
2021/01/15 08:37:03;;;;;;;23.17;10.20;;;-2.30;99.90;;;;;;4967947;28;20030;-80
2021/01/15 08:39:45;;;;;;;17.85;9.40;;;-2.30;99.90;;;;;;4952225;29;20034;-79
2021/01/15 08:42:12;;;;;;;19.27;10.52;;;-2.30;99.90;;;;;;4972145;28;20030;-80
2021/01/15 08:44:38;;;;;;;15.73;8.80;;;-2.30;99.90;;;;;;4972411;28;20022;-80
2021/01/15 08:47:08;;;;;;;20.05;11.23;;;-2.30;99.90;;;;;;4972506;28;20034;-80
2021/01/15 08:49:34;;;;;;;20.08;9.75;;;-2.30;99.90;;;;;;4972736;28;20479;-80
2021/01/15 08:52:02;;;;;;;15.93;9.43;;;-2.30;99.90;;;;;;4972585;28;20077;-80
2021/01/15 08:54:30;;;;;;;19.25;9.30;;;-2.30;99.90;;;;;;4972563;28;20525;-80
2021/01/15 08:56:56;;;;;;;17.55;9.38;;;-2.20;99.90;;;;;;4972377;28;20046;-80
2021/01/15 08:59:30;;;;;;;18.23;8.77;;;-2.10;99.90;;;;;;4972550;28;20029;-80
2021/01/15 09:02:00;;;;;;;;;;;-2.10;99.90;;;;;;4971739;28;20037;-80
2021/01/15 09:04:29;;;;;;;14.95;8.27;;;-2.00;99.90;;;;;;4972379;28;20586;-79
2021/01/15 09:06:56;;;;;;;16.17;8.25;;;-1.90;99.90;;;;;;4970113;28;20058;-79
2021/01/15 09:09:24;;;;;;;16.15;8.77;;;-1.90;99.90;;;;;;4968905;28;20019;-79
2021/01/15 09:11:51;;;;;;;21.70;8.88;;;-1.90;99.90;;;;;;4967590;28;20031;-79
2021/01/15 09:14:24;;;;;;;24.15;8.65;;;-1.90;99.90;;;;;;4962855;28;20025;-80
2021/01/15 09:16:52;;;;;;;15.40;8.75;;;-1.80;99.90;;;;;;4952830;28;20035;-79
2021/01/15 09:19:18;;;;;;;14.77;8.10;;;-1.90;99.90;;;;;;4951797;28;20035;-79
2021/01/15 09:21:52;;;;;;;12.40;6.28;;;-1.90;99.90;;;;;;4951821;28;20027;-79
2021/01/15 09:24:20;;;;;;;13.30;7.60;;;-1.80;99.90;;;;;;4952759;28;20031;-80
2021/01/15 09:26:47;;;;;;;15.32;7.72;;;-1.70;99.90;;;;;;4970386;28;20026;-79
2021/01/15 09:29:13;;;;;;;14.43;8.77;;;-1.70;99.90;;;;;;4971236;28;20023;-80
2021/01/15 09:31:43;;;;;;;15.38;7.53;;;-1.60;99.90;;;;;;4971163;28;20054;-79
2021/01/15 09:34:13;;;;;;;16.02;7.72;;;-1.60;99.90;;;;;;4975519;28;20082;-79
2021/01/15 09:36:43;;;;;;;12.88;6.60;;;-1.50;99.90;;;;;;4975735;28;20034;-79
2021/01/15 09:39:10;;;;;;;19.00;7.15;;;-1.40;99.90;;;;;;4975822;28;20139;-80
2021/01/15 09:41:41;;;;;;;13.90;7.10;;;-1.40;99.90;;;;;;4974044;28;20058;-80
2021/01/15 09:44:06;;;;;;;15.77;7.22;;;-1.30;99.90;;;;;;4974580;28;20026;-80
2021/01/15 09:46:32;;;;;;;10.38;6.13;;;-1.30;99.90;;;;;;4975480;28;20046;-80
2021/01/15 09:48:58;;;;;;;19.02;6.78;;;-1.10;99.90;;;;;;4975403;28;20034;-80
2021/01/15 09:51:26;;;;;;;12.73;6.28;;;-1.10;99.90;;;;;;4974118;28;20057;-80
2021/01/15 09:53:56;;;;;;;16.13;5.65;;;-1.10;99.90;;;;;;4974784;28;20472;-79
2021/01/15 09:56:29;;;;;;;12.07;5.82;;;-1.10;99.90;;;;;;4967979;28;20027;-80
2021/01/15 09:58:59;;;;;;;13.10;5.68;;;-1.00;99.90;;;;;;4973590;28;20085;-80
2021/01/15 10:01:25;;;;;;;9.10;5.22;;;-1.10;99.90;;;;;;4974128;28;20104;-79
2021/01/15 10:03:55;;;;;;;10.23;5.57;;;-1.00;99.90;;;;;;4975118;28;20023;-80
2021/01/15 10:06:21;;;;;;;11.30;5.57;;;-1.00;99.90;;;;;;4974001;28;20027;-80
2021/01/15 10:08:47;;;;;;;10.93;5.00;;;-0.90;99.90;;;;;;4973426;28;20026;-79
2021/01/15 10:11:23;;;;;;;12.73;5.03;;;-0.90;99.90;;;;;;4974722;28;20031;-80
2021/01/15 10:13:52;;;;;;;9.50;5.00;;;-0.80;99.90;;;;;;4973746;28;20023;-80
2021/01/15 10:16:18;;;;;;;8.95;4.80;;;-0.80;99.90;;;;;;4973572;28;20181;-79
2021/01/15 10:18:43;;;;;;;7.32;4.82;;;-0.70;99.90;;;;;;4975072;28;20105;-79
2021/01/15 10:21:09;;;;;;;8.60;4.40;;;-0.60;99.90;;;;;;4972898;28;20046;-79
2021/01/15 10:23:37;;;;;;;9.85;5.20;;;-0.60;99.90;;;;;;4970356;28;20037;-78
2021/01/15 10:26:03;;;;;;;13.90;5.60;;;-0.60;99.90;;;;;;4956963;28;20074;-79
2021/01/15 10:28:29;;;;;;;11.95;4.93;;;-0.60;99.90;;;;;;4975033;28;20027;-78
2021/01/15 10:30:55;;;;;;;11.25;4.85;;;-0.50;99.90;;;;;;4974646;28;20390;-79
2021/01/15 10:33:22;;;;;;;11.90;5.28;;;-0.40;99.90;;;;;;4966899;28;20103;-78
2021/01/15 10:35:48;;;;;;;9.80;4.72;;;-0.50;99.90;;;;;;4955336;28;20019;-79
2021/01/15 10:38:14;;;;;;;10.07;5.45;;;-0.40;99.90;;;;;;4972020;28;20028;-78
2021/01/15 10:40:40;;;;;;;10.25;5.50;;;-0.50;99.90;;;;;;4973252;28;20093;-79
2021/01/15 10:43:06;;;;;;;13.38;5.90;;;-0.50;99.90;;;;;;4974348;28;20038;-79
2021/01/15 10:45:31;;;;;;;9.60;5.03;;;-0.60;99.90;;;;;;4973033;28;20085;-79
2021/01/15 10:47:57;;;;;;;8.90;4.78;;;-0.70;99.90;;;;;;4973250;28;20106;-79
2021/01/15 10:50:22;;;;;;;10.68;4.57;;;-0.70;99.90;;;;;;4974484;28;20058;-79
2021/01/15 10:52:54;;;;;;;13.90;4.53;;;-0.60;99.90;;;;;;4972722;28;20027;-79
2021/01/15 10:55:20;;;;;;;16.50;4.82;;;-0.50;99.90;;;;;;4969378;28;20031;-79
2021/01/15 10:57:46;;;;;;;8.82;4.82;;;-0.40;99.90;;;;;;4973047;28;20034;-79
2021/01/15 11:00:14;;;;;;;8.88;4.75;;;-0.40;99.90;;;;;;4972856;28;20027;-79
2021/01/15 11:02:39;;;;;;;8.60;4.47;;;-0.30;99.90;;;;;;4973518;28;20027;-80
2021/01/15 11:05:08;;;;;;;8.70;3.55;;;-0.20;99.90;;;;;;4973137;28;20458;-79
2021/01/15 11:07:34;;;;;;;7.10;3.55;;;0.00;99.90;;;;;;4973379;28;20034;-80
2021/01/15 11:10:00;;;;;;;8.32;3.10;;;0.00;99.90;;;;;;4973459;28;20031;-80
2021/01/15 11:12:25;;;;;;;9.80;3.85;;;0.10;99.90;;;;;;4972757;28;20043;-80
2021/01/15 11:14:51;;;;;;;8.82;3.97;;;0.10;99.90;;;;;;4972597;28;20034;-80
2021/01/15 11:17:17;;;;;;;11.20;4.60;;;0.10;99.90;;;;;;4974000;28;20027;-80
2021/01/15 11:19:43;;;;;;;7.40;3.70;;;0.10;99.90;;;;;;4972403;28;20039;-80
2021/01/15 11:22:09;;;;;;;14.90;4.20;;;0.20;99.90;;;;;;4973908;28;20023;-80
2021/01/15 11:24:34;;;;;;;6.60;3.42;;;0.20;99.90;;;;;;4973815;28;20090;-80
2021/01/15 11:27:00;;;;;;;7.75;3.55;;;0.20;99.90;;;;;;4972522;28;20126;-79
2021/01/15 11:29:26;;;;;;;6.95;3.97;;;0.20;99.90;;;;;;4972434;28;20467;-80
2021/01/15 11:31:51;;;;;;;6.43;3.00;;;0.20;99.90;;;;;;4973516;28;20117;-79
2021/01/15 11:34:20;;;;;;;10.25;4.25;;;0.20;99.90;;;;;;4972196;28;20023;-79
2021/01/15 11:36:48;;;;;;;7.38;3.38;;;0.20;99.90;;;;;;4973795;28;20648;-80
2021/01/15 11:39:14;;;;;;;5.88;3.30;;;0.20;99.90;;;;;;4973314;28;20452;-79
2021/01/15 11:41:40;;;;;;;5.25;3.05;;;0.10;99.90;;;;;;4973464;28;20027;-80
2021/01/15 11:44:06;;;;;;;7.70;3.15;;;0.10;99.90;;;;;;4973336;28;20026;-80
2021/01/15 11:46:32;;;;;;;11.60;3.50;;;0.00;99.90;;;;;;4973263;28;20031;-80
2021/01/15 11:49:01;;;;;;;7.65;3.45;;;0.00;99.90;;;;;;4973725;28;20384;-80
2021/01/15 11:51:27;;;;;;;7.80;3.78;;;0.10;99.90;;;;;;4971922;28;20027;-80
2021/01/15 11:53:53;;;;;;;7.95;3.80;;;0.10;99.90;;;;;;4971623;28;20027;-80
2021/01/15 11:56:19;;;;;;;6.88;3.03;;;0.10;99.90;;;;;;4971739;28;20157;-80
2021/01/15 11:58:45;;;;;;;8.07;3.22;;;0.00;99.90;;;;;;4971796;28;20023;-79
2021/01/15 12:01:10;;;;;;;9.65;3.83;;;0.00;99.90;;;;;;4971881;28;20038;-80
2021/01/15 12:03:36;;;;;;;7.00;3.45;;;0.00;99.90;;;;;;4962633;28;20102;-80
2021/01/15 12:06:02;;;;;;;7.55;3.63;;;0.00;99.90;;;;;;4967673;28;20484;-80
2021/01/15 12:08:28;;;;;;;6.53;3.75;;;0.00;99.90;;;;;;4977080;28;20038;-80
2021/01/15 12:10:55;;;;;;;7.20;3.30;;;0.10;99.90;;;;;;4972332;28;20033;-80
2021/01/15 12:13:25;;;;;;;7.57;3.08;;;0.00;99.90;;;;;;4971667;28;20086;-80
2021/01/15 12:15:54;;;;;;;6.55;3.40;;;0.00;99.90;;;;;;4972722;28;20018;-80
2021/01/15 12:18:21;;;;;;;6.85;3.90;;;-0.20;99.90;;;;;;4972770;28;20522;-79
2021/01/15 12:20:47;;;;;;;6.32;3.35;;;-0.10;99.90;;;;;;4972633;28;20123;-80
2021/01/15 12:23:14;;;;;;;13.93;4.35;;;-0.10;99.90;;;;;;4972498;28;20062;-79
2021/01/15 12:25:39;;;;;;;7.68;3.33;;;-0.10;99.90;;;;;;4971003;28;20031;-80
2021/01/15 12:28:09;;;;;;;8.18;3.35;;;-0.10;99.90;;;;;;4971643;28;20057;-80
2021/01/15 12:30:35;;;;;;;15.40;3.80;;;-0.10;99.90;;;;;;4972647;28;20061;-80
2021/01/15 12:33:20;;;;;;;9.40;4.13;;;-0.10;99.90;;;;;;4971286;28;20063;-80
2021/01/15 12:35:48;;;;;;;8.95;3.40;;;-0.10;99.90;;;;;;4972555;28;20516;-79
2021/01/15 12:38:16;;;;;;;5.20;3.20;;;-0.10;99.90;;;;;;4968030;28;20031;-79
2021/01/15 12:40:42;;;;;;;5.38;3.28;;;-0.10;99.90;;;;;;4965146;28;20559;-79
2021/01/15 12:43:09;;;;;;;5.88;3.83;;;-0.10;99.90;;;;;;4971250;28;20139;-79
2021/01/15 12:45:36;;;;;;;8.80;3.17;;;-0.10;99.90;;;;;;4971203;28;20027;-79